sensor_id;sensor_type;location;lat;lon;timestamp;pressure;altitude;pressure_sealevel;temperature;humidity
13420;BME280;6781;58.440;15.470;2023-12-07T00:01:28;102666.78;;;-8.83;100.00
13420;BME280;6781;58.440;15.470;2023-12-07T00:03:54;102674.38;;;-8.82;100.00
13420;BME280;6781;58.440;15.470;2023-12-07T00:06:23;102667.59;;;-8.84;100.00
13420;BME280;6781;58.440;15.470;2023-12-07T00:08:49;102674.69;;;-8.73;100.00
13420;BME280;6781;58.440;15.470;2023-12-07T00:11:15;102668.06;;;-8.71;100.00
13420;BME280;6781;58.440;15.470;2023-12-07T00:13:42;102664.63;;;-8.73;100.00
13420;BME280;6781;58.440;15.470;2023-12-07T00:16:09;102664.91;;;-8.64;100.00
13420;BME280;6781;58.440;15.470;2023-12-07T00:18:36;102649.34;;;-8.79;100.00
13420;BME280;6781;58.440;15.470;2023-12-07T00:21:02;102640.03;;;-8.81;100.00
13420;BME280;6781;58.440;15.470;2023-12-07T00:23:31;102625.56;;;-8.89;100.00
13420;BME280;6781;58.440;15.470;2023-12-07T00:25:57;102636.19;;;-8.72;100.00
13420;BME280;6781;58.440;15.470;2023-12-07T00:28:24;102624.41;;;-8.73;100.00
13420;BME280;6781;58.440;15.470;2023-12-07T00:30:51;102619.38;;;-8.73;100.00
13420;BME280;6781;58.440;15.470;2023-12-07T00:33:18;102622.72;;;-8.74;100.00
13420;BME280;6781;58.440;15.470;2023-12-07T00:35:47;102624.53;;;-8.70;100.00
13420;BME280;6781;58.440;15.470;2023-12-07T00:38:14;102622.72;;;-8.74;100.00
13420;BME280;6781;58.440;15.470;2023-12-07T00:40:42;102618.75;;;-8.66;100.00
13420;BME280;6781;58.440;15.470;2023-12-07T00:43:09;102624.78;;;-8.61;100.00
13420;BME280;6781;58.440;15.470;2023-12-07T00:45:35;102624.09;;;-8.57;100.00
13420;BME280;6781;58.440;15.470;2023-12-07T00:48:02;102625.75;;;-8.57;100.00
13420;BME280;6781;58.440;15.470;2023-12-07T00:50:29;102615.59;;;-8.60;100.00
13420;BME280;6781;58.440;15.470;2023-12-07T00:52:56;102621.47;;;-8.60;100.00
13420;BME280;6781;58.440;15.470;2023-12-07T00:55:23;102609.00;;;-8.57;100.00
13420;BME280;6781;58.440;15.470;2023-12-07T00:57:52;102612.59;;;-8.48;100.00
13420;BME280;6781;58.440;15.470;2023-12-07T01:00:19;102629.06;;;-8.31;100.00
13420;BME280;6781;58.440;15.470;2023-12-07T01:02:45;102614.50;;;-8.41;100.00
13420;BME280;6781;58.440;15.470;2023-12-07T01:05:12;102605.16;;;-8.45;100.00
13420;BME280;6781;58.440;15.470;2023-12-07T01:07:39;102603.66;;;-8.40;100.00
13420;BME280;6781;58.440;15.470;2023-12-07T01:10:06;102597.75;;;-8.41;100.00
13420;BME280;6781;58.440;15.470;2023-12-07T01:12:34;102609.13;;;-8.25;100.00
13420;BME280;6781;58.440;15.470;2023-12-07T01:15:03;102618.84;;;-8.09;100.00
13420;BME280;6781;58.440;15.470;2023-12-07T01:17:33;102599.06;;;-8.25;100.00
13420;BME280;6781;58.440;15.470;2023-12-07T01:20:00;102580.09;;;-8.42;100.00
13420;BME280;6781;58.440;15.470;2023-12-07T01:22:29;102599.25;;;-8.19;100.00
13420;BME280;6781;58.440;15.470;2023-12-07T01:24:56;102579.59;;;-8.31;100.00
13420;BME280;6781;58.440;15.470;2023-12-07T01:27:22;102585.91;;;-8.16;100.00
13420;BME280;6781;58.440;15.470;2023-12-07T01:29:49;102566.00;;;-8.37;100.00
13420;BME280;6781;58.440;15.470;2023-12-07T01:32:17;102588.91;;;-8.28;100.00
13420;BME280;6781;58.440;15.470;2023-12-07T01:34:44;102594.34;;;-8.14;100.00
13420;BME280;6781;58.440;15.470;2023-12-07T01:37:10;102578.75;;;-8.31;100.00
13420;BME280;6781;58.440;15.470;2023-12-07T01:39:37;102574.38;;;-8.38;100.00
13420;BME280;6781;58.440;15.470;2023-12-07T01:42:04;102594.94;;;-8.23;100.00
13420;BME280;6781;58.440;15.470;2023-12-07T01:44:30;102601.13;;;-8.12;100.00
13420;BME280;6781;58.440;15.470;2023-12-07T01:46:57;102579.78;;;-8.25;100.00
13420;BME280;6781;58.440;15.470;2023-12-07T01:49:26;102575.50;;;-8.27;100.00
13420;BME280;6781;58.440;15.470;2023-12-07T01:51:53;102567.34;;;-8.48;100.00
13420;BME280;6781;58.440;15.470;2023-12-07T01:54:19;102587.91;;;-8.35;100.00
13420;BME280;6781;58.440;15.470;2023-12-07T01:56:46;102611.31;;;-8.09;100.00
13420;BME280;6781;58.440;15.470;2023-12-07T01:59:13;102599.06;;;-8.25;100.00
13420;BME280;6781;58.440;15.470;2023-12-07T02:01:40;102592.72;;;-8.41;100.00
13420;BME280;6781;58.440;15.470;2023-12-07T02:04:07;102602.56;;;-8.20;100.00
13420;BME280;6781;58.440;15.470;2023-12-07T02:06:35;102606.75;;;-8.21;100.00
13420;BME280;6781;58.440;15.470;2023-12-07T02:09:02;102577.59;;;-8.42;100.00
13420;BME280;6781;58.440;15.470;2023-12-07T02:11:29;102611.44;;;-8.04;100.00
13420;BME280;6781;58.440;15.470;2023-12-07T02:13:55;102606.53;;;-8.00;100.00
13420;BME280;6781;58.440;15.470;2023-12-07T02:16:23;102607.53;;;-7.95;100.00
13420;BME280;6781;58.440;15.470;2023-12-07T02:18:52;102620.66;;;-7.76;100.00
13420;BME280;6781;58.440;15.470;2023-12-07T02:21:21;102594.00;;;-7.98;100.00
13420;BME280;6781;58.440;15.470;2023-12-07T02:23:51;102602.03;;;-7.81;100.00
13420;BME280;6781;58.440;15.470;2023-12-07T02:26:18;102588.56;;;-7.83;100.00
13420;BME280;6781;58.440;15.470;2023-12-07T02:28:48;102590.00;;;-7.92;100.00
13420;BME280;6781;58.440;15.470;2023-12-07T02:37:20;102589.38;;;-7.84;100.00
13420;BME280;6781;58.440;15.470;2023-12-07T02:39:48;102583.53;;;-7.83;100.00
13420;BME280;6781;58.440;15.470;2023-12-07T02:42:15;102563.53;;;-8.07;100.00
13420;BME280;6781;58.440;15.470;2023-12-07T02:44:44;102574.81;;;-7.95;100.00
13420;BME280;6781;58.440;15.470;2023-12-07T02:47:10;102567.25;;;-7.95;100.00
13420;BME280;6781;58.440;15.470;2023-12-07T02:49:37;102568.16;;;-7.93;100.00
13420;BME280;6781;58.440;15.470;2023-12-07T02:52:04;102555.09;;;-8.09;100.00
13420;BME280;6781;58.440;15.470;2023-12-07T02:54:31;102560.88;;;-8.12;100.00
13420;BME280;6781;58.440;15.470;2023-12-07T02:56:58;102563.34;;;-8.13;100.00
13420;BME280;6781;58.440;15.470;2023-12-07T02:59:24;102567.63;;;-8.11;100.00
13420;BME280;6781;58.440;15.470;2023-12-07T03:04:28;102575.16;;;-8.11;100.00
13420;BME280;6781;58.440;15.470;2023-12-07T03:06:55;102591.25;;;-8.06;100.00
13420;BME280;6781;58.440;15.470;2023-12-07T03:09:22;102586.03;;;-8.12;100.00
13420;BME280;6781;58.440;15.470;2023-12-07T03:11:48;102579.78;;;-8.25;100.00
13420;BME280;6781;58.440;15.470;2023-12-07T03:14:15;102602.94;;;-8.08;100.00
13420;BME280;6781;58.440;15.470;2023-12-07T03:16:42;102616.59;;;-8.00;100.00
13420;BME280;6781;58.440;15.470;2023-12-07T03:19:09;102613.94;;;-8.04;100.00
13420;BME280;6781;58.440;15.470;2023-12-07T03:21:39;102619.75;;;-8.07;100.00
13420;BME280;6781;58.440;15.470;2023-12-07T03:24:07;102632.47;;;-8.02;100.00
13420;BME280;6781;58.440;15.470;2023-12-07T03:26:33;102650.31;;;-7.95;100.00
13420;BME280;6781;58.440;15.470;2023-12-07T03:29:00;102662.19;;;-7.91;100.00
13420;BME280;6781;58.440;15.470;2023-12-07T03:31:27;102663.94;;;-7.88;100.00
13420;BME280;6781;58.440;15.470;2023-12-07T03:33:54;102681.56;;;-7.88;100.00
13420;BME280;6781;58.440;15.470;2023-12-07T03:36:21;102690.06;;;-7.84;100.00
13420;BME280;6781;58.440;15.470;2023-12-07T03:38:49;102706.97;;;-7.80;100.00
13420;BME280;6781;58.440;15.470;2023-12-07T03:41:16;102717.00;;;-7.82;100.00
13420;BME280;6781;58.440;15.470;2023-12-07T03:43:43;102728.03;;;-7.78;100.00
13420;BME280;6781;58.440;15.470;2023-12-07T03:46:10;102735.66;;;-7.75;100.00
13420;BME280;6781;58.440;15.470;2023-12-07T03:48:37;102751.72;;;-7.72;100.00
13420;BME280;6781;58.440;15.470;2023-12-07T03:51:04;102760.19;;;-7.70;100.00
13420;BME280;6781;58.440;15.470;2023-12-07T03:53:31;102762.00;;;-7.66;100.00
13420;BME280;6781;58.440;15.470;2023-12-07T03:55:59;102767.78;;;-7.68;100.00
13420;BME280;6781;58.440;15.470;2023-12-07T03:58:26;102771.91;;;-7.70;100.00
13420;BME280;6781;58.440;15.470;2023-12-07T04:00:53;102790.63;;;-7.62;100.00
13420;BME280;6781;58.440;15.470;2023-12-07T04:03:20;102796.53;;;-7.62;100.00
13420;BME280;6781;58.440;15.470;2023-12-07T04:05:46;102803.44;;;-7.56;100.00
13420;BME280;6781;58.440;15.470;2023-12-07T04:08:13;102797.38;;;-7.61;100.00
13420;BME280;6781;58.440;15.470;2023-12-07T04:10:40;102809.13;;;-7.62;100.00
13420;BME280;6781;58.440;15.470;2023-12-07T04:13:08;102808.56;;;-7.53;100.00
13420;BME280;6781;58.440;15.470;2023-12-07T04:15:35;102807.59;;;-7.57;100.00
13420;BME280;6781;58.440;15.470;2023-12-07T04:18:02;102814.31;;;-7.57;100.00
13420;BME280;6781;58.440;15.470;2023-12-07T04:20:29;102809.28;;;-7.57;100.00
13420;BME280;6781;58.440;15.470;2023-12-07T04:22:56;102815.22;;;-7.55;100.00
13420;BME280;6781;58.440;15.470;2023-12-07T04:25:23;102819.34;;;-7.57;100.00
13420;BME280;6781;58.440;15.470;2023-12-07T04:27:49;102831.13;;;-7.56;100.00
13420;BME280;6781;58.440;15.470;2023-12-07T04:30:18;102837.88;;;-7.55;100.00
13420;BME280;6781;58.440;15.470;2023-12-07T04:32:44;102843.78;;;-7.55;100.00
13420;BME280;6781;58.440;15.470;2023-12-07T04:35:11;102842.09;;;-7.54;100.00
13420;BME280;6781;58.440;15.470;2023-12-07T04:37:38;102846.34;;;-7.53;100.00
13420;BME280;6781;58.440;15.470;2023-12-07T04:40:05;102856.41;;;-7.53;100.00
13420;BME280;6781;58.440;15.470;2023-12-07T04:42:32;102871.88;;;-7.42;100.00
13420;BME280;6781;58.440;15.470;2023-12-07T04:44:59;102883.09;;;-7.33;100.00
13420;BME280;6781;58.440;15.470;2023-12-07T04:47:27;102882.19;;;-7.35;100.00
13420;BME280;6781;58.440;15.470;2023-12-07T04:49:54;102880.28;;;-7.42;100.00
13420;BME280;6781;58.440;15.470;2023-12-07T04:52:21;102881.81;;;-7.47;100.00
13420;BME280;6781;58.440;15.470;2023-12-07T04:54:48;102876.84;;;-7.44;100.00
13420;BME280;6781;58.440;15.470;2023-12-07T04:57:15;102893.88;;;-7.37;100.00
13420;BME280;6781;58.440;15.470;2023-12-07T04:59:42;102902.44;;;-7.32;100.00
13420;BME280;6781;58.440;15.470;2023-12-07T05:02:12;102899.88;;;-7.33;100.00
13420;BME280;6781;58.440;15.470;2023-12-07T05:04:40;102905.91;;;-7.28;100.00
13420;BME280;6781;58.440;15.470;2023-12-07T05:07:07;102910.31;;;-7.23;100.00
13420;BME280;6781;58.440;15.470;2023-12-07T05:09:34;102917.97;;;-7.19;100.00
13420;BME280;6781;58.440;15.470;2023-12-07T05:12:01;102909.31;;;-7.28;100.00
13420;BME280;6781;58.440;15.470;2023-12-07T05:14:28;102921.28;;;-7.20;100.00
13420;BME280;6781;58.440;15.470;2023-12-07T05:16:55;102917.88;;;-7.23;100.00
13420;BME280;6781;58.440;15.470;2023-12-07T05:19:21;102925.41;;;-7.23;100.00
13420;BME280;6781;58.440;15.470;2023-12-07T05:21:50;102930.50;;;-7.21;100.00
13420;BME280;6781;58.440;15.470;2023-12-07T05:24:17;102928.94;;;-7.17;100.00
13420;BME280;6781;58.440;15.470;2023-12-07T05:26:44;102935.47;;;-7.24;100.00
13420;BME280;6781;58.440;15.470;2023-12-07T05:29:11;102945.63;;;-7.21;100.00
13420;BME280;6781;58.440;15.470;2023-12-07T05:31:38;102944.88;;;-7.18;100.00
13420;BME280;6781;58.440;15.470;2023-12-07T05:34:05;102945.47;;;-7.26;100.00
13420;BME280;6781;58.440;15.470;2023-12-07T05:36:32;102954.97;;;-7.18;100.00
13420;BME280;6781;58.440;15.470;2023-12-07T05:39:00;102955.91;;;-7.15;100.00
13420;BME280;6781;58.440;15.470;2023-12-07T05:41:26;102954.09;;;-7.19;100.00
13420;BME280;6781;58.440;15.470;2023-12-07T05:43:53;102963.53;;;-7.13;100.00
13420;BME280;6781;58.440;15.470;2023-12-07T05:46:20;102960.09;;;-7.15;100.00
13420;BME280;6781;58.440;15.470;2023-12-07T05:48:47;102970.38;;;-7.09;100.00
13420;BME280;6781;58.440;15.470;2023-12-07T05:51:14;102979.66;;;-7.08;100.00
13420;BME280;6781;58.440;15.470;2023-12-07T05:53:41;102979.75;;;-7.05;100.00
13420;BME280;6781;58.440;15.470;2023-12-07T05:56:09;102981.47;;;-7.04;100.00
13420;BME280;6781;58.440;15.470;2023-12-07T05:58:36;102978.03;;;-7.06;100.00
13420;BME280;6781;58.440;15.470;2023-12-07T06:01:03;102984.88;;;-7.02;100.00
13420;BME280;6781;58.440;15.470;2023-12-07T06:03:30;102989.88;;;-7.04;100.00
13420;BME280;6781;58.440;15.470;2023-12-07T06:05:57;102993.50;;;-6.96;100.00
13420;BME280;6781;58.440;15.470;2023-12-07T06:08:24;102994.41;;;-6.94;100.00
13420;BME280;6781;58.440;15.470;2023-12-07T06:10:51;102994.06;;;-7.04;100.00
13420;BME280;6781;58.440;15.470;2023-12-07T06:13:19;103003.53;;;-6.97;100.00
13420;BME280;6781;58.440;15.470;2023-12-07T06:15:46;102997.50;;;-7.02;100.00
13420;BME280;6781;58.440;15.470;2023-12-07T06:18:13;103007.78;;;-6.96;100.00
13420;BME280;6781;58.440;15.470;2023-12-07T06:20:40;103022.25;;;-6.89;100.00
13420;BME280;6781;58.440;15.470;2023-12-07T06:23:07;103020.44;;;-6.95;100.00
13420;BME280;6781;58.440;15.470;2023-12-07T06:25:38;103019.47;;;-6.98;100.00
13420;BME280;6781;58.440;15.470;2023-12-07T06:28:04;103037.41;;;-6.89;100.00
13420;BME280;6781;58.440;15.470;2023-12-07T06:30:33;103035.72;;;-6.89;100.00
13420;BME280;6781;58.440;15.470;2023-12-07T06:33:00;103048.59;;;-6.81;100.00
13420;BME280;6781;58.440;15.470;2023-12-07T06:35:27;103039.69;;;-6.97;100.00
13420;BME280;6781;58.440;15.470;2023-12-07T06:37:54;103049.91;;;-6.92;100.00
13420;BME280;6781;58.440;15.470;2023-12-07T06:40:21;103058.47;;;-6.87;100.00
13420;BME280;6781;58.440;15.470;2023-12-07T06:42:48;103063.63;;;-6.84;100.00
13420;BME280;6781;58.440;15.470;2023-12-07T06:45:15;103079.06;;;-6.75;100.00
13420;BME280;6781;58.440;15.470;2023-12-07T06:47:43;103074.72;;;-6.79;100.00
13420;BME280;6781;58.440;15.470;2023-12-07T06:50:10;103083.91;;;-6.81;100.00
13420;BME280;6781;58.440;15.470;2023-12-07T06:52:37;103086.38;;;-6.82;100.00
13420;BME280;6781;58.440;15.470;2023-12-07T06:55:04;103084.81;;;-6.79;100.00
13420;BME280;6781;58.440;15.470;2023-12-07T06:57:31;103080.72;;;-6.75;100.00
13420;BME280;6781;58.440;15.470;2023-12-07T06:59:58;103083.41;;;-6.71;100.00
13420;BME280;6781;58.440;15.470;2023-12-07T07:02:26;103081.63;;;-6.73;100.00
13420;BME280;6781;58.440;15.470;2023-12-07T07:04:54;103072.19;;;-6.79;100.00
13420;BME280;6781;58.440;15.470;2023-12-07T07:07:21;103070.28;;;-6.86;100.00
13420;BME280;6781;58.440;15.470;2023-12-07T07:09:48;103074.66;;;-6.80;100.00
13420;BME280;6781;58.440;15.470;2023-12-07T07:12:15;103073.91;;;-6.78;100.00
13420;BME280;6781;58.440;15.470;2023-12-07T07:14:42;103075.53;;;-6.80;100.00
13420;BME280;6781;58.440;15.470;2023-12-07T07:17:08;103073.72;;;-6.84;100.00
13420;BME280;6781;58.440;15.470;2023-12-07T07:19:35;103090.97;;;-6.71;100.00
13420;BME280;6781;58.440;15.470;2023-12-07T07:22:04;103077.38;;;-6.74;100.00
13420;BME280;6781;58.440;15.470;2023-12-07T07:24:31;103071.38;;;-6.78;100.00
13420;BME280;6781;58.440;15.470;2023-12-07T07:26:58;103068.09;;;-6.75;100.00
13420;BME280;6781;58.440;15.470;2023-12-07T07:29:24;103074.09;;;-6.72;100.00
13420;BME280;6781;58.440;15.470;2023-12-07T07:31:51;103064.63;;;-6.79;100.00
13420;BME280;6781;58.440;15.470;2023-12-07T07:34:18;103065.34;;;-6.83;100.00
13420;BME280;6781;58.440;15.470;2023-12-07T07:36:45;103074.91;;;-6.73;100.00
13420;BME280;6781;58.440;15.470;2023-12-07T07:39:13;103082.59;;;-6.70;100.00
13420;BME280;6781;58.440;15.470;2023-12-07T07:41:40;103088.63;;;-6.65;100.00
13420;BME280;6781;58.440;15.470;2023-12-07T07:44:07;103079.25;;;-6.69;100.00
13420;BME280;6781;58.440;15.470;2023-12-07T07:46:34;103104.69;;;-6.63;100.00
13420;BME280;6781;58.440;15.470;2023-12-07T07:49:01;103096.41;;;-6.59;100.00
13420;BME280;6781;58.440;15.470;2023-12-07T07:51:29;103095.50;;;-6.61;100.00
13420;BME280;6781;58.440;15.470;2023-12-07T07:53:57;103098.16;;;-6.56;100.00
13420;BME280;6781;58.440;15.470;2023-12-07T07:56:25;103106.59;;;-6.56;100.00
13420;BME280;6781;58.440;15.470;2023-12-07T07:58:52;103094.63;;;-6.61;100.00
13420;BME280;6781;58.440;15.470;2023-12-07T08:01:19;103091.81;;;-6.70;100.00
13420;BME280;6781;58.440;15.470;2023-12-07T08:03:46;103097.81;;;-6.67;100.00
13420;BME280;6781;58.440;15.470;2023-12-07T08:06:12;103103.97;;;-6.59;100.00
13420;BME280;6781;58.440;15.470;2023-12-07T08:08:39;103106.59;;;-6.56;100.00
13420;BME280;6781;58.440;15.470;2023-12-07T08:11:06;103103.16;;;-6.58;100.00
13420;BME280;6781;58.440;15.470;2023-12-07T08:13:34;103113.41;;;-6.53;100.00
13420;BME280;6781;58.440;15.470;2023-12-07T08:16:01;103118.78;;;-6.42;100.00
13420;BME280;6781;58.440;15.470;2023-12-07T08:18:28;103132.53;;;-6.34;100.00
13420;BME280;6781;58.440;15.470;2023-12-07T08:20:55;103122.03;;;-6.46;100.00
13420;BME280;6781;58.440;15.470;2023-12-07T08:23:22;103126.47;;;-6.39;100.00
13420;BME280;6781;58.440;15.470;2023-12-07T08:25:49;103087.63;;;-6.70;100.00
13420;BME280;6781;58.440;15.470;2023-12-07T08:28:16;103129.00;;;-6.39;100.00
13420;BME280;6781;58.440;15.470;2023-12-07T08:30:45;103121.63;;;-6.59;100.00
13420;BME280;6781;58.440;15.470;2023-12-07T08:33:12;103123.69;;;-6.47;100.00
13420;BME280;6781;58.440;15.470;2023-12-07T08:35:38;103116.97;;;-6.46;100.00
13420;BME280;6781;58.440;15.470;2023-12-07T08:38:05;103122.88;;;-6.46;100.00
13420;BME280;6781;58.440;15.470;2023-12-07T08:40:32;103123.94;;;-6.39;100.00
13420;BME280;6781;58.440;15.470;2023-12-07T08:42:59;103108.41;;;-6.51;100.00
13420;BME280;6781;58.440;15.470;2023-12-07T08:45:25;103122.19;;;-6.42;100.00
13420;BME280;6781;58.440;15.470;2023-12-07T08:47:54;103118.78;;;-6.42;100.00
13420;BME280;6781;58.440;15.470;2023-12-07T08:50:20;103128.13;;;-6.40;100.00
13420;BME280;6781;58.440;15.470;2023-12-07T08:52:47;103122.41;;;-6.34;100.00
13420;BME280;6781;58.440;15.470;2023-12-07T08:55:14;103136.25;;;-6.23;100.00
13420;BME280;6781;58.440;15.470;2023-12-07T08:57:42;103141.38;;;-6.20;100.00
13420;BME280;6781;58.440;15.470;2023-12-07T09:00:09;103140.53;;;-6.20;100.00
13420;BME280;6781;58.440;15.470;2023-12-07T09:02:38;103139.06;;;-6.14;100.00
13420;BME280;6781;58.440;15.470;2023-12-07T09:05:06;103131.09;;;-6.26;100.00
13420;BME280;6781;58.440;15.470;2023-12-07T09:07:34;103140.47;;;-6.22;100.00
13420;BME280;6781;58.440;15.470;2023-12-07T09:10:01;103136.34;;;-6.20;100.00
13420;BME280;6781;58.440;15.470;2023-12-07T09:12:28;103145.69;;;-6.17;100.00
13420;BME280;6781;58.440;15.470;2023-12-07T09:14:56;103142.19;;;-6.21;100.00
13420;BME280;6781;58.440;15.470;2023-12-07T09:17:23;103139.78;;;-6.18;100.00
13420;BME280;6781;58.440;15.470;2023-12-07T09:19:49;103155.09;;;-6.12;100.00
13420;BME280;6781;58.440;15.470;2023-12-07T09:22:18;103156.81;;;-6.11;100.00
13420;BME280;6781;58.440;15.470;2023-12-07T09:24:45;103156.72;;;-6.14;100.00
13420;BME280;6781;58.440;15.470;2023-12-07T09:27:13;103155.91;;;-6.13;100.00
13420;BME280;6781;58.440;15.470;2023-12-07T09:29:39;103157.53;;;-6.15;100.00
13420;BME280;6781;58.440;15.470;2023-12-07T09:32:07;103166.91;;;-6.11;100.00
13420;BME280;6781;58.440;15.470;2023-12-07T09:34:34;103167.13;;;-6.05;100.00
13420;BME280;6781;58.440;15.470;2023-12-07T09:37:07;103171.44;;;-6.01;100.00
13420;BME280;6781;58.440;15.470;2023-12-07T09:39:36;103179.31;;;-5.92;100.00
13420;BME280;6781;58.440;15.470;2023-12-07T09:42:03;103170.13;;;-5.89;100.00
13420;BME280;6781;58.440;15.470;2023-12-07T09:44:30;103162.53;;;-5.89;100.00
13420;BME280;6781;58.440;15.470;2023-12-07T09:46:56;103092.31;;;-6.28;100.00
13420;BME280;6781;58.440;15.470;2023-12-07T09:49:23;103162.97;;;-5.74;100.00
13420;BME280;6781;58.440;15.470;2023-12-07T09:51:51;103168.88;;;-5.74;100.00
13420;BME280;6781;58.440;15.470;2023-12-07T09:54:18;103167.56;;;-5.61;100.00
13420;BME280;6781;58.440;15.470;2023-12-07T09:56:48;103155.63;;;-5.67;100.00
13420;BME280;6781;58.440;15.470;2023-12-07T09:59:16;103158.28;;;-5.62;100.00
13420;BME280;6781;58.440;15.470;2023-12-07T10:01:43;103158.47;;;-5.56;100.00
13420;BME280;6781;58.440;15.470;2023-12-07T10:04:16;103139.72;;;-5.63;100.00
13420;BME280;6781;58.440;15.470;2023-12-07T10:06:43;103145.00;;;-5.55;100.00
13420;BME280;6781;58.440;15.470;2023-12-07T10:09:09;103137.59;;;-5.49;100.00
13420;BME280;6781;58.440;15.470;2023-12-07T10:11:36;103146.91;;;-5.48;100.00
13420;BME280;6781;58.440;15.470;2023-12-07T10:14:04;103151.50;;;-5.35;100.00
13420;BME280;6781;58.440;15.470;2023-12-07T10:16:32;103137.06;;;-5.39;100.00
13420;BME280;6781;58.440;15.470;2023-12-07T10:19:09;103142.09;;;-5.39;100.00
13420;BME280;6781;58.440;15.470;2023-12-07T10:21:39;103139.03;;;-5.29;100.00
13420;BME280;6781;58.440;15.470;2023-12-07T10:24:06;103142.63;;;-5.20;100.00
13420;BME280;6781;58.440;15.470;2023-12-07T10:26:33;103124.78;;;-5.25;100.00
13420;BME280;6781;58.440;15.470;2023-12-07T10:29:01;103121.41;;;-5.26;100.00
13420;BME280;6781;58.440;15.470;2023-12-07T10:31:30;103131.69;;;-5.18;100.00
13420;BME280;6781;58.440;15.470;2023-12-07T10:33:57;103139.56;;;-5.07;100.00
13420;BME280;6781;58.440;15.470;2023-12-07T10:36:24;103115.84;;;-5.12;100.00
13420;BME280;6781;58.440;15.470;2023-12-07T10:38:51;103109.19;;;-5.09;100.00
13420;BME280;6781;58.440;15.470;2023-12-07T10:41:18;103110.09;;;-5.07;100.00
13420;BME280;6781;58.440;15.470;2023-12-07T10:43:48;103123.00;;;-4.96;100.00
13420;BME280;6781;58.440;15.470;2023-12-07T10:46:15;103114.38;;;-5.04;100.00
13420;BME280;6781;58.440;15.470;2023-12-07T10:48:44;103108.53;;;-5.02;100.00
13420;BME280;6781;58.440;15.470;2023-12-07T10:51:13;103105.22;;;-4.99;100.00
13420;BME280;6781;58.440;15.470;2023-12-07T10:53:45;103102.78;;;-4.96;100.00
13420;BME280;6781;58.440;15.470;2023-12-07T10:56:14;103094.38;;;-4.95;100.00
13420;BME280;6781;58.440;15.470;2023-12-07T10:58:42;103090.94;;;-4.97;100.00
13420;BME280;6781;58.440;15.470;2023-12-07T11:01:09;103089.31;;;-4.95;100.00
13420;BME280;6781;58.440;15.470;2023-12-07T11:03:39;103088.41;;;-4.97;100.00
13420;BME280;6781;58.440;15.470;2023-12-07T11:06:08;103079.94;;;-4.99;100.00
13420;BME280;6781;58.440;15.470;2023-12-07T11:08:36;103096.16;;;-4.91;100.00
13420;BME280;6781;58.440;15.470;2023-12-07T11:11:04;103099.59;;;-4.89;100.00
13420;BME280;6781;58.440;15.470;2023-12-07T11:13:33;103102.94;;;-4.90;100.00
13420;BME280;6781;58.440;15.470;2023-12-07T11:16:03;103103.00;;;-4.87;100.00
13420;BME280;6781;58.440;15.470;2023-12-07T11:18:30;103111.50;;;-4.85;100.00
13420;BME280;6781;58.440;15.470;2023-12-07T11:20:57;103125.13;;;-4.80;100.00
13420;BME280;6781;58.440;15.470;2023-12-07T11:23:25;103123.59;;;-4.73;100.00
13420;BME280;6781;58.440;15.470;2023-12-07T11:25:53;103128.78;;;-4.69;100.00
13420;BME280;6781;58.440;15.470;2023-12-07T11:28:33;103135.41;;;-4.74;100.00
13420;BME280;6781;58.440;15.470;2023-12-07T11:31:00;103132.13;;;-4.70;100.00
13420;BME280;6781;58.440;15.470;2023-12-07T11:33:28;103159.53;;;-4.53;100.00
13420;BME280;6781;58.440;15.470;2023-12-07T11:36:05;103150.28;;;-4.53;100.00
13420;BME280;6781;58.440;15.470;2023-12-07T11:38:34;103142.56;;;-4.57;100.00
13420;BME280;6781;58.440;15.470;2023-12-07T11:41:02;103145.13;;;-4.56;100.00
13420;BME280;6781;58.440;15.470;2023-12-07T11:43:41;103158.94;;;-4.43;100.00
13420;BME280;6781;58.440;15.470;2023-12-07T11:46:11;103146.06;;;-4.52;100.00
13420;BME280;6781;58.440;15.470;2023-12-07T11:48:38;103147.84;;;-4.48;100.00
13420;BME280;6781;58.440;15.470;2023-12-07T11:51:05;103153.97;;;-4.40;100.00
13420;BME280;6781;58.440;15.470;2023-12-07T11:53:34;103154.78;;;-4.41;100.00
13420;BME280;6781;58.440;15.470;2023-12-07T11:56:01;103160.94;;;-4.32;100.00
13420;BME280;6781;58.440;15.470;2023-12-07T11:58:29;103166.00;;;-4.32;100.00
13420;BME280;6781;58.440;15.470;2023-12-07T12:00:57;103167.75;;;-4.29;100.00
13420;BME280;6781;58.440;15.470;2023-12-07T12:03:24;103176.34;;;-4.22;100.00
13420;BME280;6781;58.440;15.470;2023-12-07T12:05:51;103183.94;;;-4.22;100.00
13420;BME280;6781;58.440;15.470;2023-12-07T12:08:18;103184.13;;;-4.15;100.00
13420;BME280;6781;58.440;15.470;2023-12-07T12:10:47;103184.25;;;-4.10;100.00
13420;BME280;6781;58.440;15.470;2023-12-07T12:13:15;103188.47;;;-4.09;100.00
13420;BME280;6781;58.440;15.470;2023-12-07T12:15:42;103194.53;;;-4.04;100.00
13420;BME280;6781;58.440;15.470;2023-12-07T12:18:09;103191.06;;;-4.08;100.00
13420;BME280;6781;58.440;15.470;2023-12-07T12:20:37;103201.25;;;-4.05;100.00
13420;BME280;6781;58.440;15.470;2023-12-07T12:23:04;103219.25;;;-3.94;100.00
13420;BME280;6781;58.440;15.470;2023-12-07T12:25:32;103214.38;;;-3.86;100.00
13420;BME280;6781;58.440;15.470;2023-12-07T12:28:01;103218.47;;;-3.91;100.00
13420;BME280;6781;58.440;15.470;2023-12-07T12:30:28;103228.69;;;-3.88;100.00
13420;BME280;6781;58.440;15.470;2023-12-07T12:32:55;103220.25;;;-3.87;100.00
13420;BME280;6781;58.440;15.470;2023-12-07T12:35:22;103231.34;;;-3.82;100.00
13420;BME280;6781;58.440;15.470;2023-12-07T12:37:50;103227.03;;;-3.86;100.00
13420;BME280;6781;58.440;15.470;2023-12-07T12:40:17;103227.03;;;-3.86;100.00
13420;BME280;6781;58.440;15.470;2023-12-07T12:42:45;103229.56;;;-3.86;100.00
13420;BME280;6781;58.440;15.470;2023-12-07T12:45:14;103235.53;;;-3.84;100.00
13420;BME280;6781;58.440;15.470;2023-12-07T12:47:41;103239.75;;;-3.85;100.00
13420;BME280;6781;58.440;15.470;2023-12-07T12:50:08;103240.38;;;-3.94;100.00